Time;durP1;ratioP1;P1;durP2;ratioP2;P2;SDS_P1;SDS_P2;PMS_P1;PMS_P2;Temp;Humidity;BMP_temperature;BMP_pressure;BME280_temperature;BME280_humidity;BME280_pressure;Samples;Min_cycle;Max_cycle;Signal;HPM_P1;HPM_P2
2022/07/22 00:01:39;;;;;;;3.60;2.77;;;;;;;17.68;78.70;99735.91;1790482;80;21019;-73
2022/07/22 00:04:08;;;;;;;3.70;2.62;;;;;;;17.68;78.74;99736.73;1757911;81;20933;-73
2022/07/22 00:06:35;;;;;;;5.83;2.90;;;;;;;17.72;78.76;99741.23;1780344;79;20931;-72
2022/07/22 00:09:03;;;;;;;5.50;2.60;;;;;;;17.73;78.81;99738.88;1780095;79;21917;-72
2022/07/22 00:11:29;;;;;;;3.12;2.62;;;;;;;17.73;78.91;99743.72;1788741;79;21106;-73
2022/07/22 00:13:56;;;;;;;3.90;3.00;;;;;;;17.76;78.85;99744.35;1805082;79;20957;-72
2022/07/22 00:16:22;;;;;;;5.03;2.80;;;;;;;17.76;78.80;99745.21;1817675;78;20982;-72
2022/07/22 00:18:49;;;;;;;5.72;3.08;;;;;;;17.75;78.85;99742.19;1777640;79;20994;-72
2022/07/22 00:21:15;;;;;;;4.62;2.90;;;;;;;17.74;78.86;99749.88;1813635;78;21913;-72
2022/07/22 00:23:42;;;;;;;4.67;2.87;;;;;;;17.74;78.87;99750.71;1783846;78;20977;-72
2022/07/22 00:26:08;;;;;;;3.80;2.58;;;;;;;17.74;78.93;99749.37;1807420;77;21475;-72
2022/07/22 00:28:35;;;;;;;3.08;2.62;;;;;;;17.73;79.01;99750.90;1795590;79;21004;-72
2022/07/22 00:31:03;;;;;;;4.03;2.90;;;;;;;17.75;79.01;99748.87;1807288;78;21410;-72
2022/07/22 00:33:29;;;;;;;5.72;2.98;;;;;;;17.74;79.01;99755.22;1776366;78;22466;-72
2022/07/22 00:35:56;;;;;;;4.20;3.00;;;;;;;17.73;79.01;99752.23;1812621;78;20920;-72
2022/07/22 00:38:22;;;;;;;7.95;3.30;;;;;;;17.75;79.03;99756.87;1814154;77;20943;-72
2022/07/22 00:40:49;;;;;;;5.17;3.10;;;;;;;17.76;79.02;99762.58;1823230;77;20971;-73
2022/07/22 00:43:16;;;;;;;4.65;3.10;;;;;;;17.77;79.02;99759.39;1818909;77;20931;-72
2022/07/22 00:45:44;;;;;;;4.67;3.10;;;;;;;17.77;79.09;99762.89;1820875;77;22332;-73
2022/07/22 00:48:11;;;;;;;6.78;3.10;;;;;;;17.78;79.09;99754.38;1796949;78;21486;-72
2022/07/22 00:50:38;;;;;;;4.70;3.05;;;;;;;17.80;79.09;99759.02;1804772;78;20987;-73
2022/07/22 00:53:05;;;;;;;3.95;3.10;;;;;;;17.79;79.11;99753.36;1798828;78;21078;-72
2022/07/22 00:55:34;;;;;;;3.77;2.95;;;;;;;17.80;79.09;99755.02;1780231;78;20966;-72
2022/07/22 00:58:03;;;;;;;3.52;3.02;;;;;;;17.79;79.05;99757.36;1797687;79;20931;-72
2022/07/22 01:00:30;;;;;;;4.28;2.70;;;;;;;17.80;79.01;99758.51;1803705;78;21038;-72
2022/07/22 01:02:56;;;;;;;4.97;3.27;;;;;;;17.81;78.97;99755.33;1816321;78;20971;-72
2022/07/22 01:05:25;;;;;;;4.53;3.42;;;;;;;17.81;78.94;99762.01;1822556;78;20978;-73
2022/07/22 01:07:52;;;;;;;5.60;3.45;;;;;;;17.80;78.96;99763.02;1797677;78;20923;-72
2022/07/22 01:10:19;;;;;;;4.70;3.22;;;;;;;17.78;79.01;99762.39;1778688;78;21848;-72
2022/07/22 01:12:47;;;;;;;5.17;3.37;;;;;;;17.76;79.02;99761.72;1837348;77;21338;-73
2022/07/22 01:15:14;;;;;;;3.72;3.22;;;;;;;17.74;79.12;99763.23;1825016;77;21029;-72
2022/07/22 01:17:41;;;;;;;6.55;3.15;;;;;;;17.72;79.10;99757.25;1790245;79;21072;-72
2022/07/22 01:20:09;;;;;;;5.00;3.35;;;;;;;17.72;79.09;99759.92;1823685;77;21044;-72
2022/07/22 01:22:37;;;;;;;4.72;3.08;;;;;;;17.70;79.08;99763.30;1849376;77;22705;-72
2022/07/22 01:25:04;;;;;;;3.37;2.90;;;;;;;17.68;79.12;99764.78;1793043;77;20926;-73
2022/07/22 01:27:31;;;;;;;4.30;3.00;;;;;;;17.66;79.14;99766.81;1820774;77;21400;-72
2022/07/22 01:29:57;;;;;;;4.15;3.20;;;;;;;17.67;79.21;99767.13;1817663;77;21012;-72
2022/07/22 01:32:24;;;;;;;6.08;3.45;;;;;;;17.66;79.17;99765.95;1832702;77;20935;-72
2022/07/22 01:34:50;;;;;;;7.08;3.40;;;;;;;17.64;79.20;99767.48;1847079;77;21895;-73
2022/07/22 01:37:17;;;;;;;7.45;3.22;;;;;;;17.67;79.18;99766.30;1817097;77;21530;-72
2022/07/22 01:39:44;;;;;;;4.92;3.30;;;;;;;17.68;79.12;99766.13;1848951;77;20973;-72
2022/07/22 01:42:10;;;;;;;4.45;3.08;;;;;;;17.68;79.14;99770.63;1843401;77;20975;-72
2022/07/22 01:44:37;;;;;;;6.28;3.02;;;;;;;17.65;79.12;99765.13;1815911;77;20969;-72
2022/07/22 01:47:04;;;;;;;5.83;3.70;;;;;;;17.66;79.14;99771.30;1836052;77;21886;-73
2022/07/22 01:49:33;;;;;;;7.12;3.50;;;;;;;17.63;79.09;99773.83;1829697;77;21424;-72
2022/07/22 01:52:00;;;;;;;4.50;3.17;;;;;;;17.64;79.18;99781.34;1841333;77;21435;-72
2022/07/22 01:54:27;;;;;;;4.75;3.30;;;;;;;17.65;79.20;99770.97;1818255;77;21540;-72
2022/07/22 01:56:54;;;;;;;5.30;2.90;;;;;;;17.67;79.18;99776.48;1832730;77;21353;-72
2022/07/22 01:59:20;;;;;;;4.50;2.95;;;;;;;17.65;79.12;99773.14;1849435;77;21899;-72
2022/07/22 02:01:47;;;;;;;4.55;3.15;;;;;;;17.63;79.08;99769.83;1818960;77;20986;-72
2022/07/22 02:04:14;;;;;;;5.33;3.27;;;;;;;17.62;79.08;99768.17;1821437;77;21409;-72
2022/07/22 02:06:42;;;;;;;5.05;3.40;;;;;;;17.62;79.10;99772.69;1832731;77;21365;-72
2022/07/22 02:09:10;;;;;;;4.15;3.20;;;;;;;17.61;79.07;99774.53;1820982;77;20973;-72
2022/07/22 02:11:44;;;;;;;5.03;3.47;;;;;;;17.61;79.06;99769.69;1840491;77;22178;-72
2022/07/22 02:14:13;;;;;;;4.95;3.50;;;;;;;17.59;79.12;99770.39;1846134;77;20970;-72
2022/07/22 02:16:39;;;;;;;5.15;3.25;;;;;;;17.57;79.14;99771.91;1823826;77;20932;-72
2022/07/22 02:19:06;;;;;;;4.67;3.47;;;;;;;17.57;79.19;99771.91;1773146;79;21035;-72
2022/07/22 02:21:35;;;;;;;5.40;3.05;;;;;;;17.57;79.21;99767.91;1787947;79;21003;-72
2022/07/22 02:24:02;;;;;;;4.15;3.20;;;;;;;17.55;79.23;99768.56;1783606;79;21831;-72
2022/07/22 02:26:29;;;;;;;6.97;3.40;;;;;;;17.51;79.25;99768.62;1795360;79;21465;-72
2022/07/22 02:28:57;;;;;;;5.15;3.50;;;;;;;17.50;79.32;99761.62;1803361;79;21098;-72
2022/07/22 02:31:23;;;;;;;5.45;3.25;;;;;;;17.48;79.39;99773.50;1797614;79;21394;-72
2022/07/22 02:33:50;;;;;;;5.87;3.10;;;;;;;17.45;79.48;99779.50;1772411;79;20985;-72
2022/07/22 02:36:17;;;;;;;3.80;3.40;;;;;;;17.46;79.59;99774.98;1744140;82;21782;-72
2022/07/22 02:38:45;;;;;;;9.50;3.33;;;;;;;17.45;79.56;99778.67;1782949;79;20932;-73
2022/07/22 02:41:12;;;;;;;6.30;3.60;;;;;;;17.45;79.57;99776.83;1751402;81;21015;-72
2022/07/22 02:43:41;;;;;;;3.62;3.05;;;;;;;17.45;79.57;99771.49;1781559;79;21020;-72
2022/07/22 02:46:07;;;;;;;5.78;3.30;;;;;;;17.44;79.55;99778.35;1797762;79;21521;-73
2022/07/22 02:48:34;;;;;;;4.62;3.50;;;;;;;17.40;79.53;99780.56;1793852;79;22531;-72
2022/07/22 02:51:01;;;;;;;7.58;3.47;;;;;;;17.40;79.54;99777.89;1779766;79;21433;-72
2022/07/22 02:53:28;;;;;;;4.95;2.98;;;;;;;17.42;79.65;99784.38;1783492;79;21083;-72
2022/07/22 02:55:55;;;;;;;4.75;3.35;;;;;;;17.42;79.68;99781.72;1761942;80;20957;-72
2022/07/22 02:58:22;;;;;;;5.50;3.22;;;;;;;17.40;79.64;99788.57;1793731;79;20940;-72
2022/07/22 03:00:48;;;;;;;7.78;3.35;;;;;;;17.36;79.62;99787.77;1762756;80;21812;-72
2022/07/22 03:03:15;;;;;;;5.08;3.33;;;;;;;17.36;79.68;99798.44;1782503;79;20953;-71
2022/07/22 03:05:42;;;;;;;6.33;3.40;;;;;;;17.36;79.68;99801.11;1831136;77;20954;-71
2022/07/22 03:08:19;;;;;;;5.08;3.20;;;;;;;17.36;79.59;99802.45;1842248;77;21029;-71
2022/07/22 03:10:46;;;;;;;8.53;3.40;;;;;;;17.36;79.56;99803.78;1826082;77;21006;-71
2022/07/22 03:13:13;;;;;;;5.47;3.20;;;;;;;17.39;79.59;99807.45;1818891;77;21844;-72
2022/07/22 03:15:40;;;;;;;7.37;3.12;;;;;;;17.40;79.46;99801.09;1805774;79;21062;-72
2022/07/22 03:18:08;;;;;;;7.12;3.30;;;;;;;17.39;79.31;99808.78;1807631;78;20998;-73
2022/07/22 03:20:36;;;;;;;6.35;3.33;;;;;;;17.36;79.32;99813.13;1813897;78;20955;-73
2022/07/22 03:23:02;;;;;;;4.28;3.40;;;;;;;17.34;79.28;99811.14;1841326;78;21393;-73
2022/07/22 03:25:32;;;;;;;5.97;3.47;;;;;;;17.37;79.34;99822.31;1754998;81;21782;-73
2022/07/22 03:27:59;;;;;;;4.87;3.60;;;;;;;17.37;79.30;99815.64;1782571;80;21037;-73
2022/07/22 03:30:25;;;;;;;4.78;3.65;;;;;;;17.36;79.21;99819.29;1771101;79;21495;-72
2022/07/22 03:32:52;;;;;;;5.33;3.40;;;;;;;17.36;79.26;99821.13;1757018;80;21005;-73
2022/07/22 03:35:19;;;;;;;6.75;3.62;;;;;;;17.20;79.70;99811.94;1792950;79;21059;-72
2022/07/22 03:37:46;;;;;;;7.08;3.30;;;;;;;17.16;79.83;99810.94;1774031;80;21879;-73
2022/07/22 03:40:13;;;;;;;6.15;3.45;;;;;;;17.33;79.44;99816.98;1787716;80;20933;-73
2022/07/22 03:42:39;;;;;;;5.30;3.60;;;;;;;17.36;79.33;99817.95;1806798;78;21387;-72
2022/07/22 03:45:08;;;;;;;8.45;3.87;;;;;;;17.40;79.34;99817.11;1820941;78;21055;-73
2022/07/22 03:47:37;;;;;;;7.05;3.62;;;;;;;17.42;79.17;99810.58;1817279;77;20922;-73
2022/07/22 03:50:05;;;;;;;6.05;3.42;;;;;;;17.44;79.07;99814.39;1789255;78;22504;-73
2022/07/22 03:52:32;;;;;;;7.08;3.65;;;;;;;17.43;78.96;99818.91;1757836;80;21025;-72
2022/07/22 03:55:01;;;;;;;5.12;3.47;;;;;;;17.44;78.96;99814.39;1794793;79;21439;-72
2022/07/22 03:57:29;;;;;;;5.60;3.50;;;;;;;17.44;78.95;99813.89;1789917;79;21502;-73
2022/07/22 04:00:00;;;;;;;3.83;3.30;;;;;;;17.50;78.94;99813.69;1777638;80;21004;-72
2022/07/22 04:02:27;;;;;;;7.37;3.80;;;;;;;17.54;78.92;99819.48;1740704;81;22418;-73
2022/07/22 04:04:54;;;;;;;9.05;3.80;;;;;;;17.57;78.91;99824.48;1766883;79;21411;-73
2022/07/22 04:07:21;;;;;;;8.50;3.37;;;;;;;17.63;78.94;99826.42;1821134;78;21027;-72
2022/07/22 04:09:47;;;;;;;6.17;3.70;;;;;;;17.70;78.90;99829.56;1813250;78;21333;-73
2022/07/22 04:12:15;;;;;;;6.12;3.30;;;;;;;17.74;78.65;99833.52;1804610;78;21349;-73
2022/07/22 04:14:44;;;;;;;8.00;3.55;;;;;;;17.79;78.56;99828.15;1799298;77;21440;-73
2022/07/22 04:17:11;;;;;;;6.62;3.52;;;;;;;17.87;78.51;99830.24;1795216;78;20971;-72
2022/07/22 04:19:38;;;;;;;7.05;3.50;;;;;;;17.91;78.19;99831.52;1794720;80;21024;-73
2022/07/22 04:22:07;;;;;;;7.83;3.85;;;;;;;17.96;78.08;99830.48;1818179;77;21048;-73
2022/07/22 04:24:34;;;;;;;5.08;3.58;;;;;;;18.04;78.08;99826.88;1814119;77;21029;-73
2022/07/22 04:27:01;;;;;;;7.95;3.60;;;;;;;18.15;78.03;99829.12;1834177;77;21925;-73
2022/07/22 04:29:28;;;;;;;6.62;3.80;;;;;;;18.24;77.71;99832.02;1826924;77;21052;-73
2022/07/22 04:31:54;;;;;;;5.40;3.70;;;;;;;18.27;77.31;99831.64;1814076;77;21041;-73
2022/07/22 04:34:21;;;;;;;4.45;3.40;;;;;;;18.30;76.89;99838.45;1810540;77;20970;-73
2022/07/22 04:36:49;;;;;;;5.28;3.58;;;;;;;18.35;76.81;99836.59;1838161;77;21037;-72
2022/07/22 04:39:17;;;;;;;5.80;3.20;;;;;;;18.42;76.86;99830.28;1814444;77;21785;-73
2022/07/22 04:41:46;;;;;;;5.65;3.60;;;;;;;18.51;76.65;99833.69;1828791;77;20986;-73
2022/07/22 04:44:15;;;;;;;4.85;3.62;;;;;;;18.49;75.93;99834.39;1820666;77;21360;-73
2022/07/22 04:46:42;;;;;;;3.83;3.42;;;;;;;18.47;75.67;99835.92;1822964;77;21398;-73
2022/07/22 04:49:09;;;;;;;7.60;3.52;;;;;;;18.46;75.40;99841.45;1840466;77;20997;-74
2022/07/22 04:51:36;;;;;;;4.75;3.37;;;;;;;18.44;75.25;99852.86;1843539;77;21918;-73
2022/07/22 04:54:04;;;;;;;5.65;3.70;;;;;;;18.43;75.15;99854.70;1832708;77;20811;-74
2022/07/22 04:56:34;;;;;;;5.83;3.40;;;;;;;18.44;75.30;99856.87;1816914;77;20949;-73
2022/07/22 04:59:01;;;;;;;6.35;4.10;;;;;;;18.51;75.41;99853.75;1814690;77;20990;-73
2022/07/22 05:01:29;;;;;;;5.83;3.40;;;;;;;18.56;75.20;99858.88;1833820;77;21025;-73
2022/07/22 05:03:59;;;;;;;4.90;3.25;;;;;;;18.59;75.28;99851.81;1823997;77;21838;-73
2022/07/22 05:06:26;;;;;;;4.15;3.58;;;;;;;18.69;75.29;99856.90;1818144;77;20998;-73
2022/07/22 05:08:55;;;;;;;5.55;3.50;;;;;;;18.80;75.11;99863.11;1791833;78;21547;-73
2022/07/22 05:11:21;;;;;;;4.42;3.30;;;;;;;18.86;74.84;99859.69;1785348;78;21399;-72
2022/07/22 05:13:48;;;;;;;4.92;3.30;;;;;;;18.87;74.52;99860.01;1822601;78;21498;-74
2022/07/22 05:16:15;;;;;;;6.08;3.60;;;;;;;18.91;74.22;99863.64;1801733;79;21770;-73
2022/07/22 05:18:42;;;;;;;4.60;3.22;;;;;;;18.90;73.89;99861.47;1777627;79;21028;-73
2022/07/22 05:21:12;;;;;;;5.50;3.58;;;;;;;18.92;73.67;99863.98;1813616;79;20973;-73
2022/07/22 05:23:39;;;;;;;6.45;3.90;;;;;;;18.93;73.52;99865.13;1804679;78;21050;-73
2022/07/22 05:26:06;;;;;;;5.22;3.22;;;;;;;18.94;72.98;99859.27;1788912;79;21097;-73
2022/07/22 05:28:33;;;;;;;7.60;3.67;;;;;;;18.91;72.74;99854.27;1820727;77;22519;-73
2022/07/22 05:31:01;;;;;;;3.65;3.20;;;;;;;18.94;72.81;99853.41;1840308;77;21013;-72
2022/07/22 05:33:29;;;;;;;4.90;3.22;;;;;;;19.00;72.78;99857.98;1819617;77;20978;-72
2022/07/22 05:36:05;;;;;;;4.62;3.50;;;;;;;19.08;72.70;99853.86;1809365;77;20933;-73
2022/07/22 05:38:39;;;;;;;4.05;3.50;;;;;;;19.16;72.54;99855.59;1836763;77;21072;-72
2022/07/22 05:41:06;;;;;;;3.95;3.30;;;;;;;19.26;72.47;99857.96;1822832;77;22308;-74
2022/07/22 05:43:33;;;;;;;7.87;3.40;;;;;;;19.29;72.27;99862.92;1841302;77;20911;-73
2022/07/22 05:46:00;;;;;;;5.53;3.40;;;;;;;19.27;71.62;99869.81;1829159;77;21032;-72
2022/07/22 05:48:27;;;;;;;5.90;3.65;;;;;;;19.26;71.70;99857.45;1811045;78;20931;-73
2022/07/22 05:50:54;;;;;;;4.50;3.20;;;;;;;19.23;71.46;99871.22;1812266;77;20991;-72
2022/07/22 05:53:20;;;;;;;4.90;3.40;;;;;;;19.22;71.63;99864.22;1810445;77;21999;-73
2022/07/22 05:55:47;;;;;;;5.35;3.50;;;;;;;19.29;71.70;99866.42;1790297;79;20987;-73
2022/07/22 05:58:15;;;;;;;6.03;3.55;;;;;;;19.36;71.52;99863.83;1782232;80;20956;-72
2022/07/22 06:00:42;;;;;;;3.75;3.35;;;;;;;19.42;71.44;99868.43;1797463;79;21019;-72
2022/07/22 06:03:09;;;;;;;6.67;3.37;;;;;;;19.46;71.24;99869.69;1824508;77;21006;-72
2022/07/22 06:05:36;;;;;;;4.10;3.08;;;;;;;19.50;71.31;99872.84;1845985;77;21973;-73
2022/07/22 06:08:03;;;;;;;6.37;3.72;;;;;;;19.60;71.08;99881.41;1834663;77;20931;-73
2022/07/22 06:10:36;;;;;;;6.08;3.47;;;;;;;19.64;70.83;99876.80;1839607;77;21025;-73
2022/07/22 06:13:03;;;;;;;7.80;3.40;;;;;;;19.64;70.61;99875.97;1846842;77;20943;-75
2022/07/22 06:15:29;;;;;;;5.53;3.20;;;;;;;19.64;70.57;99868.77;1843103;77;20928;-75
2022/07/22 06:17:57;;;;;;;5.90;3.30;;;;;;;19.73;70.71;99874.30;1833415;77;21897;-74
2022/07/22 06:20:26;;;;;;;5.03;3.22;;;;;;;19.83;70.40;99868.61;1818175;77;20910;-73
2022/07/22 06:22:53;;;;;;;5.45;3.62;;;;;;;19.88;69.64;99885.44;1816175;77;20946;-73
2022/07/22 06:25:20;;;;;;;5.45;3.33;;;;;;;19.88;69.34;99876.91;1832466;77;20966;-74
2022/07/22 06:27:47;;;;;;;5.45;2.75;;;;;;;19.90;69.43;99881.56;1822385;77;21284;-74
2022/07/22 06:30:14;;;;;;;4.55;3.27;;;;;;;19.98;69.31;99869.88;1825596;77;22027;-73
2022/07/22 06:32:41;;;;;;;5.78;3.30;;;;;;;20.08;68.86;99875.72;1822086;77;21036;-73
2022/07/22 06:35:08;;;;;;;4.83;3.20;;;;;;;20.28;69.26;99875.34;1826013;77;20954;-73
2022/07/22 06:37:35;;;;;;;5.20;3.00;;;;;;;20.46;68.49;99872.66;1830090;77;20981;-72
2022/07/22 06:40:02;;;;;;;5.22;3.40;;;;;;;20.55;67.86;99870.96;1834945;77;21127;-70
2022/07/22 06:42:33;;;;;;;4.12;3.30;;;;;;;20.67;67.64;99879.30;1837330;77;21759;-71
2022/07/22 06:45:08;;;;;;;6.37;3.10;;;;;;;20.76;67.22;99868.70;1843578;77;21025;-71
2022/07/22 06:47:55;;;;;;;4.50;2.60;;;;;;;20.77;66.46;99869.53;1824401;77;21060;-72
2022/07/22 06:50:22;;;;;;;4.92;2.90;;;;;;;20.81;66.26;99866.23;1844408;77;21021;-69
2022/07/22 06:52:52;;;;;;;9.60;2.87;;;;;;;20.88;66.44;99869.47;1820727;76;21060;-70
2022/07/22 06:55:19;;;;;;;4.87;3.15;;;;;;;20.94;65.81;99867.30;1818156;77;21914;-71
2022/07/22 06:57:47;;;;;;;5.72;2.70;;;;;;;20.95;65.38;99865.79;1819164;77;21584;-72
2022/07/22 07:00:15;;;;;;;4.67;2.90;;;;;;;21.01;65.44;99862.80;1802907;79;21493;-70
2022/07/22 07:02:53;;;;;;;5.83;2.98;;;;;;;21.11;64.77;99865.41;1789191;79;21010;-70
2022/07/22 07:05:19;;;;;;;4.12;2.72;;;;;;;21.14;63.79;99868.22;1811789;79;21053;-69
2022/07/22 07:07:47;;;;;;;4.25;2.90;;;;;;;21.14;64.20;99862.33;1746118;79;21927;-72
2022/07/22 07:10:15;;;;;;;6.28;2.95;;;;;;;21.26;64.87;99873.34;1812281;79;21078;-73
2022/07/22 07:12:48;;;;;;;7.12;2.80;;;;;;;21.42;64.77;99867.59;1804904;79;21035;-73
2022/07/22 07:15:20;;;;;;;3.25;2.58;;;;;;;21.62;63.83;99864.92;1794842;79;20992;-72
2022/07/22 07:17:46;;;;;;;8.48;3.15;;;;;;;21.73;63.24;99869.38;1807338;79;20993;-72
2022/07/22 07:20:16;;;;;;;5.25;2.60;;;;;;;21.83;61.91;99875.16;1778839;80;21969;-72
2022/07/22 07:22:43;;;;;;;3.00;2.70;;;;;;;21.76;61.80;99874.33;1810201;79;21020;-72
2022/07/22 07:25:10;;;;;;;3.27;2.33;;;;;;;21.73;62.28;99864.00;1799606;77;21026;-72
2022/07/22 07:27:37;;;;;;;4.60;2.50;;;;;;;21.78;62.15;99875.77;1768214;79;21037;-73
2022/07/22 07:30:06;;;;;;;3.87;2.60;;;;;;;21.78;61.25;99869.05;1793079;79;21030;-72
2022/07/22 07:32:34;;;;;;;2.90;2.50;;;;;;;21.73;61.31;99870.72;1791663;79;22536;-73
2022/07/22 07:35:03;;;;;;;2.77;2.40;;;;;;;21.74;61.50;99876.40;1774768;79;21597;-72
2022/07/22 07:37:30;;;;;;;4.60;2.47;;;;;;;21.76;61.38;99872.98;1775098;80;21035;-71
2022/07/22 07:39:57;;;;;;;8.25;2.50;;;;;;;21.77;61.38;99876.80;1761970;80;21083;-68
2022/07/22 07:42:25;;;;;;;4.72;2.65;;;;;;;21.87;61.19;99882.59;1807431;78;21016;-69
2022/07/22 07:44:51;;;;;;;4.15;2.37;;;;;;;21.93;60.42;99876.91;1810844;79;21990;-71
2022/07/22 07:47:20;;;;;;;5.35;2.30;;;;;;;22.00;60.30;99873.69;1792315;79;21024;-71
2022/07/22 07:49:47;;;;;;;4.30;2.12;;;;;;;22.06;60.05;99875.55;1781264;79;21107;-67
2022/07/22 07:52:14;;;;;;;3.50;2.27;;;;;;;22.13;60.40;99876.41;1778895;80;21016;-69
2022/07/22 07:54:41;;;;;;;4.47;2.37;;;;;;;22.23;59.93;99875.98;1788998;79;21026;-70
2022/07/22 07:57:10;;;;;;;6.35;2.60;;;;;;;22.32;60.15;99872.55;1807017;79;21784;-70
2022/07/22 07:59:38;;;;;;;5.05;2.65;;;;;;;22.36;59.86;99875.94;1809315;79;21360;-71
2022/07/22 08:02:06;;;;;;;2.62;2.42;;;;;;;22.33;59.70;99875.55;1770968;80;21084;-71
2022/07/22 08:04:35;;;;;;;2.92;2.08;;;;;;;22.38;59.95;99875.73;1774519;80;21066;-71
2022/07/22 08:07:05;;;;;;;6.42;2.17;;;;;;;22.47;59.05;99880.67;1796587;79;21063;-70
2022/07/22 08:09:35;;;;;;;2.47;2.00;;;;;;;22.52;58.65;99878.71;1790902;80;21816;-70
2022/07/22 08:12:05;;;;;;;4.47;2.20;;;;;;;22.61;58.04;99883.34;1810407;79;21086;-71
2022/07/22 08:14:36;;;;;;;3.33;2.10;;;;;;;22.73;58.57;99883.81;1742781;79;21078;-71
2022/07/22 08:17:21;;;;;;;3.20;2.02;;;;;;;22.85;57.26;99888.03;1790701;79;21028;-70
2022/07/22 08:19:50;;;;;;;4.78;1.80;;;;;;;22.87;57.26;99890.52;1771080;81;21038;-72
2022/07/22 08:22:16;;;;;;;2.65;1.90;;;;;;;22.85;56.29;99890.73;1770992;81;21848;-71
2022/07/22 08:24:45;;;;;;;2.25;2.00;;;;;;;22.92;56.10;99883.98;1785583;79;21026;-71
2022/07/22 08:27:13;;;;;;;3.30;2.00;;;;;;;23.00;55.72;99883.73;1772751;79;21054;-71
2022/07/22 08:29:40;;;;;;;2.95;2.00;;;;;;;23.10;55.88;99880.06;1771138;81;21216;-71
2022/07/22 08:32:07;;;;;;;4.12;1.85;;;;;;;23.27;56.06;99875.00;1771200;79;20994;-71
2022/07/22 08:34:35;;;;;;;3.33;1.92;;;;;;;23.48;55.53;99877.34;1780804;79;21873;-71
2022/07/22 08:37:02;;;;;;;5.17;1.77;;;;;;;23.55;55.08;99872.73;1773669;79;21079;-71
2022/07/22 08:39:29;;;;;;;2.42;1.62;;;;;;;23.55;55.09;99875.96;1802690;79;21057;-72
2022/07/22 08:41:56;;;;;;;2.17;1.77;;;;;;;23.57;54.59;99878.73;1784001;79;21031;-71
2022/07/22 08:44:23;;;;;;;3.17;1.98;;;;;;;23.60;53.75;99872.10;1772533;79;21043;-71
2022/07/22 08:46:49;;;;;;;4.35;1.67;;;;;;;23.69;53.81;99875.66;1801698;79;22223;-71
2022/07/22 08:49:21;;;;;;;3.52;1.80;;;;;;;23.84;54.22;99875.88;1802686;79;21019;-71
2022/07/22 08:51:53;;;;;;;1.90;1.70;;;;;;;23.99;53.41;99873.64;1801978;79;21035;-71
2022/07/22 08:54:28;;;;;;;6.83;1.60;;;;;;;24.02;51.98;99869.15;1802127;79;21019;-71
2022/07/22 08:56:56;;;;;;;3.52;1.50;;;;;;;24.01;51.99;99870.20;1787772;79;21004;-71
2022/07/22 08:59:25;;;;;;;3.72;1.57;;;;;;;24.03;51.99;99872.17;1780130;79;22813;-71
2022/07/22 09:02:08;;;;;;;3.40;1.65;;;;;;;24.07;52.59;99880.11;1781617;80;21066;-72
2022/07/22 09:04:59;;;;;;;3.42;1.57;;;;;;;24.05;51.75;99871.95;1791372;79;21018;-72
2022/07/22 09:07:33;;;;;;;6.10;1.50;;;;;;;23.91;51.82;99883.36;1783174;79;21010;-72
2022/07/22 09:10:04;;;;;;;4.25;1.70;;;;;;;23.86;52.54;99880.52;1770589;81;21034;-71
2022/07/22 09:12:34;;;;;;;2.00;1.60;;;;;;;23.92;51.29;99872.34;1815031;78;21800;-73
2022/07/22 09:15:03;;;;;;;4.15;1.50;;;;;;;23.94;52.02;99874.33;1774193;79;21067;-72
2022/07/22 09:17:35;;;;;;;4.85;1.77;;;;;;;24.00;51.16;99872.59;1810368;79;21056;-74
2022/07/22 09:20:22;;;;;;;6.10;1.80;;;;;;;24.01;51.64;99876.12;1789777;79;21052;-72
2022/07/22 09:23:17;;;;;;;4.58;1.32;;;;;;;24.18;52.81;99869.94;1810476;79;21012;-72
2022/07/22 09:25:45;;;;;;;4.35;1.72;;;;;;;24.45;51.42;99877.80;1784670;79;23001;-72
2022/07/22 09:28:27;;;;;;;14.03;2.50;;;;;;;24.59;51.05;99869.02;1765275;81;21292;-72
2022/07/22 09:31:29;;;;;;;2.80;1.67;;;;;;;24.69;50.51;99873.36;1765251;81;21000;-72
2022/07/22 09:34:00;;;;;;;17.42;3.22;;;;;;;24.78;51.05;99875.52;1778871;79;21091;-72
2022/07/22 09:36:29;;;;;;;6.50;1.72;;;;;;;24.94;51.00;99879.49;1778571;80;21039;-72
2022/07/22 09:38:56;;;;;;;3.58;1.57;;;;;;;25.04;49.97;99882.51;1778522;80;21820;-72
2022/07/22 09:41:24;;;;;;;1.85;1.40;;;;;;;25.03;48.78;99889.50;1789543;78;20900;-72
2022/07/22 09:43:51;;;;;;;2.72;1.57;;;;;;;25.00;48.61;99875.07;1788098;80;21003;-73
2022/07/22 09:46:23;;;;;;;2.98;1.77;;;;;;;25.00;48.36;99886.70;1787617;78;20984;-73
2022/07/22 09:48:55;;;;;;;2.37;1.42;;;;;;;25.06;46.65;99874.17;1784356;79;21052;-72
2022/07/22 09:51:34;;;;;;;2.33;1.45;;;;;;;25.09;46.85;99877.26;1799729;79;21123;-72
2022/07/22 09:54:12;;;;;;;3.65;1.50;;;;;;;25.16;48.15;99875.80;1724062;82;21081;-72
2022/07/22 09:56:40;;;;;;;3.12;1.15;;;;;;;25.34;48.12;99877.09;1810725;79;21028;-72
2022/07/22 09:59:07;;;;;;;23.12;1.70;;;;;;;25.51;47.34;99873.75;1810153;79;21051;-72
2022/07/22 10:01:37;;;;;;;1.82;1.20;;;;;;;25.59;45.56;99867.48;1788666;78;21035;-72
2022/07/22 10:04:05;;;;;;;5.37;1.67;;;;;;;25.58;46.44;99882.06;1778643;80;21918;-72
2022/07/22 10:06:34;;;;;;;5.05;1.40;;;;;;;25.65;45.99;99888.17;1792605;79;21016;-72
2022/07/22 10:09:01;;;;;;;2.90;1.42;;;;;;;25.81;46.36;99876.41;1785711;79;22068;-73
2022/07/22 10:11:28;;;;;;;3.77;1.30;;;;;;;25.90;44.08;99880.42;1790649;79;21078;-72
2022/07/22 10:13:57;;;;;;;4.92;1.50;;;;;;;25.87;44.50;99884.96;1778606;80;21431;-71
2022/07/22 10:16:25;;;;;;;5.25;1.67;;;;;;;25.83;44.91;99883.23;1775257;79;22394;-72
2022/07/22 10:18:54;;;;;;;15.65;2.25;;;;;;;25.85;45.31;99891.94;1804252;79;20988;-72
2022/07/22 10:21:33;;;;;;;3.00;1.30;;;;;;;25.81;44.38;99891.30;1805058;78;21025;-72
2022/07/22 10:24:23;;;;;;;9.48;2.00;;;;;;;25.73;44.26;99899.22;1803493;78;21072;-72
2022/07/22 10:26:57;;;;;;;17.92;2.40;;;;;;;25.76;45.56;99897.92;1811570;78;21029;-72
2022/07/22 10:29:30;;;;;;;6.90;2.00;;;;;;;26.07;45.87;99896.27;1755240;81;22570;-72
2022/07/22 10:32:27;;;;;;;2.58;1.22;;;;;;;26.47;45.29;99897.76;1756869;81;20984;-73
2022/07/22 10:35:13;;;;;;;1.85;1.40;;;;;;;26.74;44.32;99898.60;1747801;82;21020;-72
2022/07/22 10:37:43;;;;;;;1.77;1.20;;;;;;;26.64;43.94;99907.88;1756537;81;20996;-72
2022/07/22 10:40:16;;;;;;;1.92;1.30;;;;;;;26.40;43.39;99910.59;1743204;80;21078;-72
2022/07/22 10:43:04;;;;;;;2.27;1.20;;;;;;;26.32;43.80;99910.09;1764282;80;21810;-73
2022/07/22 10:45:58;;;;;;;3.10;1.20;;;;;;;26.38;44.14;99906.48;1787919;80;21342;-72
2022/07/22 10:48:41;;;;;;;2.87;1.40;;;;;;;26.53;45.78;99908.16;1767069;80;20959;-72
2022/07/22 10:51:10;;;;;;;11.35;1.77;;;;;;;26.58;44.31;99911.52;1789551;78;20967;-72
2022/07/22 10:53:57;;;;;;;2.72;1.57;;;;;;;26.64;44.71;99912.76;1789940;80;21428;-72
2022/07/22 10:56:35;;;;;;;5.03;1.40;;;;;;;26.69;43.90;99911.50;1788701;78;22848;-72
2022/07/22 10:59:14;;;;;;;4.22;1.45;;;;;;;26.79;43.52;99919.02;1791010;78;20992;-72
2022/07/22 11:01:45;;;;;;;5.50;1.42;;;;;;;26.95;42.82;99902.55;1790523;80;20988;-73
2022/07/22 11:04:21;;;;;;;2.30;1.22;;;;;;;27.11;42.19;99905.86;1789980;80;20995;-73
2022/07/22 11:06:55;;;;;;;4.95;1.50;;;;;;;27.26;41.79;99906.17;1810743;78;21026;-72
2022/07/22 11:09:34;;;;;;;2.02;1.20;;;;;;;27.48;41.79;99906.83;1808487;77;20959;-73
2022/07/22 11:12:01;;;;;;;4.03;1.30;;;;;;;27.57;41.83;99916.22;1787932;80;21427;-72
2022/07/22 11:14:33;;;;;;;3.45;1.35;;;;;;;27.57;42.01;99906.19;1785327;78;21042;-73
2022/07/22 11:17:08;;;;;;;1.30;1.00;;;;;;;27.59;41.56;99914.08;1762117;80;20994;-73
2022/07/22 11:19:39;;;;;;;2.05;1.20;;;;;;;27.59;41.57;99912.19;1795130;78;21193;-73
2022/07/22 11:22:10;;;;;;;1.55;1.30;;;;;;;27.77;41.90;99911.70;1807299;77;21944;-73
2022/07/22 11:24:38;;;;;;;1.62;1.12;;;;;;;28.02;41.28;99914.03;1803154;79;20968;-73
2022/07/22 11:27:15;;;;;;;4.03;1.50;;;;;;;28.27;39.68;99914.40;1770181;80;20943;-72
2022/07/22 11:29:44;;;;;;;4.55;1.25;;;;;;;28.27;39.68;99914.40;1784015;80;21486;-70
2022/07/22 11:32:12;;;;;;;3.45;1.40;;;;;;;28.32;40.61;99908.27;1796109;77;20998;-72
2022/07/22 11:34:48;;;;;;;8.55;1.95;;;;;;;28.48;39.97;99916.39;1783500;79;21509;-70
2022/07/22 11:37:16;;;;;;;4.00;1.40;;;;;;;28.44;38.68;99916.59;1795502;79;20951;-71
2022/07/22 11:39:42;;;;;;;2.72;1.12;;;;;;;28.47;39.65;99917.98;1805223;79;20992;-71
2022/07/22 11:42:10;;;;;;;4.58;1.20;;;;;;;28.55;39.27;99912.66;1784259;79;20999;-72
2022/07/22 11:44:38;;;;;;;1.95;1.27;;;;;;;28.55;39.27;99912.66;1783449;79;21496;-71